French Camp, California
Current Conditions -  °F | °C
As of 2:55 PM on Saturday 25 Oct 2014 (Local Time) from KSCK Reporting Station
Clear Clear  
Wind Chill: 73°   Ceiling: Unl
Heat Index: 73°   Visibility: 10mi
Dew Point: 54°   Wind: 6mph
Humidity: 51%   Direction: NA
Pressure: 30.04"   Gusts: NA
Location:  37.88°N, 121.27°W
Report Text: KSCK 252155Z VRB05KT 10SM CLR 23/12 A3004 RMK AO2 SLP172 T02280122
Loading
Personal Weather Stations






























Interactive Weather Map
Tropical Storm Tracking
New forecast layout! Learn more

10-Day Weather Forecast

Advertisements
Track Severe Weather on mobile